Pagina principale
METAR-TAF:

METAR-TAF

Aeroporti :

Cagliari, Italia

Aeroporto di Cagliari-Elmas

latitudine: 39-15N, longitudine: 009-04E, altezza: 4 m

Osservazione

Il bollettino è stato emesso 15 minuti fa, alle 20:20 UTC
Vento 17 kt da nord-ovest
Temperature 23°C
Umidità 57%
Pressione 1010 hPa
Visibilità 10 km o più
nessuna nube inferiore a 1500 m e nessun cumulonembo

METAR: LIEE 252020Z 32017KT CAVOK 23/14 Q1010

Ora: 22:35 (20:35 UTC)

Previsione

Il bollettino è stato emesso 3 ore e 35 minuti fa, alle 17:00 UTC
Previsione valida dal 25 alle 18 UTC al 26 alle 18 UTC
Vento 18 kt da nord-ovest
Visibilità 10 km o più
nessuna nube inferiore a 1500 m e nessun cumulonembo

TAF: LIEE 251700Z 2518/2618 32018KT CAVOK

Osservazioni e previsioni meteorologiche di più di 4000 aeroporti (messaggi METAR e TAF).

Le stazioni disponibili sono rappresentate dai dischi gialli e rossi sulla carta.

Puntare il mouse per vedere il nome della stazione.

Clicca sopra per visualizzare le osservazioni e previsioni meteorologiche.

Per cambiare la mappa : fare clic sui pulsanti verdi con una croce nera per ingrandire, il pulsante verde con un trattino per diminuire, o sulla freccia verde per le mappe adiacenti.


METAR-TAF: